createdAt,value
2022-11-05T00:00:08.893Z,100.00
2022-11-05T00:03:29.283Z,100.00
2022-11-05T00:06:49.359Z,100.00
2022-11-05T00:09:55.225Z,100.00
2022-11-05T00:13:17.479Z,100.00
2022-11-05T00:16:37.597Z,100.00
2022-11-05T00:19:39.099Z,100.00
2022-11-05T00:22:59.339Z,100.00
2022-11-05T00:26:01.935Z,100.00
2022-11-05T00:29:04.774Z,100.00
2022-11-05T00:32:06.605Z,100.00
2022-11-05T00:35:08.481Z,100.00
2022-11-05T00:38:10.135Z,100.00
2022-11-05T00:41:11.821Z,100.00
2022-11-05T00:44:33.382Z,100.00
2022-11-05T00:47:53.794Z,100.00
2022-11-05T00:50:55.339Z,100.00
2022-11-05T00:53:57.015Z,100.00
2022-11-05T00:57:04.355Z,100.00
2022-11-05T01:00:08.550Z,100.00
2022-11-05T01:03:11.640Z,100.00
2022-11-05T01:06:14.461Z,100.00
2022-11-05T01:09:18.657Z,100.00
2022-11-05T01:12:20.189Z,100.00
2022-11-05T01:15:23.667Z,100.00
2022-11-05T01:18:25.543Z,100.00
2022-11-05T01:21:27.376Z,100.00
2022-11-05T01:24:29.067Z,100.00
2022-11-05T01:27:31.101Z,100.00
2022-11-05T01:30:34.056Z,100.00
2022-11-05T01:33:35.701Z,100.00
2022-11-05T01:36:37.474Z,100.00
2022-11-05T01:39:38.977Z,100.00
2022-11-05T01:42:40.553Z,100.00
2022-11-05T01:45:44.648Z,100.00
2022-11-05T01:48:50.858Z,100.00
2022-11-05T01:51:52.450Z,100.00
2022-11-05T01:54:54.553Z,100.00
2022-11-05T01:57:58.760Z,100.00
2022-11-05T02:01:01.847Z,100.00
2022-11-05T02:04:05.186Z,100.00
2022-11-05T02:07:08.169Z,100.00
2022-11-05T02:10:10.409Z,100.00
2022-11-05T02:13:12.121Z,100.00
2022-11-05T02:16:17.756Z,100.00
2022-11-05T02:19:36.855Z,100.00
2022-11-05T02:22:51.019Z,100.00
2022-11-05T02:26:05.187Z,100.00
2022-11-05T02:29:17.557Z,100.00
2022-11-05T02:32:25.431Z,100.00
2022-11-05T02:35:39.141Z,100.00
2022-11-05T02:38:43.066Z,100.00
2022-11-05T02:41:49.324Z,100.00
2022-11-05T02:44:56.720Z,100.00
2022-11-05T02:48:03.886Z,100.00
2022-11-05T02:51:08.990Z,100.00
2022-11-05T02:54:13.783Z,100.00
2022-11-05T02:57:15.660Z,100.00
2022-11-05T03:00:36.046Z,100.00
2022-11-05T03:03:40.316Z,100.00
2022-11-05T03:06:51.439Z,100.00
2022-11-05T03:10:00.274Z,100.00
2022-11-05T03:13:09.421Z,100.00
2022-11-05T03:16:16.198Z,100.00
2022-11-05T03:19:21.937Z,100.00
2022-11-05T03:22:25.473Z,100.00
2022-11-05T03:25:28.888Z,100.00
2022-11-05T03:28:32.845Z,100.00
2022-11-05T03:31:35.646Z,100.00
2022-11-05T03:34:41.623Z,100.00
2022-11-05T03:37:45.481Z,100.00
2022-11-05T03:40:49.729Z,100.00
2022-11-05T03:43:54.926Z,100.00
2022-11-05T03:46:58.857Z,100.00
2022-11-05T03:50:04.838Z,100.00
2022-11-05T03:53:11.806Z,100.00
2022-11-05T03:56:18.319Z,100.00
2022-11-05T03:59:20.302Z,100.00
2022-11-05T04:02:23.115Z,100.00
2022-11-05T04:05:26.111Z,100.00
2022-11-05T04:08:46.236Z,100.00
2022-11-05T04:12:06.628Z,100.00
2022-11-05T04:15:08.697Z,100.00
2022-11-05T04:18:10.219Z,100.00
2022-11-05T04:21:32.046Z,100.00
2022-11-05T04:24:33.730Z,100.00
2022-11-05T04:27:35.661Z,100.00
2022-11-05T04:30:37.307Z,100.00
2022-11-05T04:33:39.052Z,100.00
2022-11-05T04:36:44.472Z,100.00
2022-11-05T04:39:45.967Z,100.00
2022-11-05T04:42:47.541Z,100.00
2022-11-05T04:45:49.260Z,100.00
2022-11-05T04:48:50.911Z,100.00
2022-11-05T04:51:53.843Z,100.00
2022-11-05T04:54:55.387Z,100.00
2022-11-05T04:57:56.974Z,100.00
2022-11-05T05:00:58.563Z,100.00
2022-11-05T05:04:00.216Z,100.00
2022-11-05T05:07:03.203Z,100.00
2022-11-05T05:10:05.354Z,100.00
2022-11-05T05:13:06.901Z,100.00
2022-11-05T05:16:09.235Z,100.00
2022-11-05T05:19:10.899Z,100.00
2022-11-05T05:22:13.799Z,100.00
2022-11-05T05:25:15.525Z,100.00
2022-11-05T05:28:17.027Z,100.00
2022-11-05T05:31:18.807Z,100.00
2022-11-05T05:34:20.809Z,100.00
2022-11-05T05:37:23.854Z,100.00
2022-11-05T05:40:25.379Z,100.00
2022-11-05T05:43:29.566Z,100.00
2022-11-05T05:46:31.189Z,100.00
2022-11-05T05:49:33.122Z,100.00
2022-11-05T05:52:36.351Z,100.00
2022-11-05T05:55:37.875Z,100.00
2022-11-05T05:58:39.574Z,100.00
2022-11-05T06:01:41.221Z,100.00
2022-11-05T06:04:42.892Z,100.00
2022-11-05T06:07:54.673Z,100.00
2022-11-05T06:10:59.295Z,100.00
2022-11-05T06:14:01.081Z,100.00
2022-11-05T06:17:02.602Z,100.00
2022-11-05T06:20:04.584Z,100.00
2022-11-05T06:23:07.944Z,100.00
2022-11-05T06:26:11.053Z,100.00
2022-11-05T06:29:12.859Z,100.00
2022-11-05T06:32:15.499Z,100.00
2022-11-05T06:35:19.968Z,100.00
2022-11-05T06:38:23.039Z,100.00
2022-11-05T06:41:24.700Z,100.00
2022-11-05T06:44:26.213Z,100.00
2022-11-05T06:47:27.894Z,100.00
2022-11-05T06:50:29.411Z,100.00
2022-11-05T06:53:32.298Z,100.00
2022-11-05T06:56:33.786Z,100.00
2022-11-05T06:59:35.224Z,100.00
2022-11-05T07:02:37.068Z,100.00
2022-11-05T07:05:40.203Z,100.00
2022-11-05T07:08:43.176Z,100.00
2022-11-05T07:11:44.753Z,100.00
2022-11-05T07:14:46.192Z,100.00
2022-11-05T07:17:47.744Z,100.00
2022-11-05T07:20:49.385Z,100.00
2022-11-05T07:23:52.270Z,100.00
2022-11-05T07:26:53.849Z,100.00
2022-11-05T07:29:55.466Z,100.00
2022-11-05T07:32:57.046Z,100.00
2022-11-05T07:35:58.577Z,100.00
2022-11-05T07:39:01.584Z,100.00
2022-11-05T07:42:03.143Z,100.00
2022-11-05T07:45:07.163Z,100.00
2022-11-05T07:48:09.821Z,100.00
2022-11-05T07:51:11.331Z,100.00
2022-11-05T07:54:14.186Z,100.00
2022-11-05T07:57:15.743Z,100.00
2022-11-05T08:00:19.941Z,100.00
2022-11-05T08:03:21.864Z,100.00
2022-11-05T08:06:23.574Z,100.00
2022-11-05T08:09:26.570Z,100.00
2022-11-05T08:12:28.026Z,100.00
2022-11-05T08:15:29.571Z,100.00
2022-11-05T08:18:32.085Z,100.00
2022-11-05T08:21:33.595Z,100.00
2022-11-05T08:24:36.455Z,100.00
2022-11-05T08:27:38.174Z,100.00
2022-11-05T08:30:40.196Z,100.00
2022-11-05T08:33:41.732Z,100.00
2022-11-05T08:36:46.498Z,100.00
2022-11-05T08:39:49.430Z,100.00
2022-11-05T08:42:50.987Z,100.00
2022-11-05T08:45:52.644Z,100.00
2022-11-05T08:48:57.130Z,100.00
2022-11-05T08:51:58.641Z,100.00
2022-11-05T08:55:01.574Z,100.00
2022-11-05T08:58:04.352Z,100.00
2022-11-05T09:01:06.284Z,100.00
2022-11-05T09:04:08.086Z,100.00
2022-11-05T09:07:09.651Z,100.00
2022-11-05T09:10:12.695Z,100.00
2022-11-05T09:13:18.855Z,100.00
2022-11-05T09:16:21.993Z,100.00
2022-11-05T09:19:23.573Z,100.00
2022-11-05T09:22:25.415Z,100.00
2022-11-05T09:25:28.400Z,100.00
2022-11-05T09:28:31.717Z,100.00
2022-11-05T09:31:33.224Z,100.00
2022-11-05T09:34:34.826Z,100.00
2022-11-05T09:37:36.452Z,100.00
2022-11-05T09:40:41.788Z,99.83
2022-11-05T09:43:44.811Z,100.00
2022-11-05T09:46:48.820Z,100.00
2022-11-05T09:49:52.013Z,100.00
2022-11-05T09:52:53.554Z,100.00
2022-11-05T09:55:57.986Z,100.00
2022-11-05T09:59:01.918Z,100.00
2022-11-05T10:02:11.391Z,99.45
2022-11-05T10:05:13.963Z,100.00
2022-11-05T10:08:19.500Z,99.77
2022-11-05T10:11:25.519Z,99.91
2022-11-05T10:14:28.317Z,98.81
2022-11-05T10:17:33.749Z,98.93
2022-11-05T10:20:38.843Z,99.16
2022-11-05T10:23:40.550Z,97.68
2022-11-05T10:26:46.537Z,97.83
2022-11-05T10:29:48.266Z,97.01
2022-11-05T10:32:52.325Z,97.01
2022-11-05T10:35:56.090Z,96.95
2022-11-05T10:39:00.573Z,96.79
2022-11-05T10:42:23.253Z,96.68
2022-11-05T10:45:31.741Z,96.59
2022-11-05T10:49:03.038Z,95.65
2022-11-05T10:52:14.379Z,95.54
2022-11-05T10:55:17.347Z,95.89
2022-11-05T10:58:21.987Z,95.86
2022-11-05T11:01:24.524Z,95.18
2022-11-05T11:04:27.259Z,95.06
2022-11-05T11:07:28.819Z,94.71
2022-11-05T11:10:31.665Z,95.47
2022-11-05T11:17:26.796Z,95.24
2022-11-05T11:20:29.741Z,95.15
2022-11-05T11:23:36.074Z,95.14
2022-11-05T11:26:38.334Z,94.69
2022-11-05T11:29:44.006Z,94.47
2022-11-05T11:32:51.151Z,93.83
2022-11-05T11:35:52.779Z,92.73
2022-11-05T11:38:58.951Z,92.39
2022-11-05T11:42:02.299Z,92.43
2022-11-05T11:45:05.996Z,91.76
2022-11-05T11:48:14.518Z,91.63
2022-11-05T11:51:17.839Z,91.61
2022-11-05T11:54:20.528Z,91.09
2022-11-05T11:57:23.222Z,90.71
2022-11-05T12:00:27.024Z,91.46
2022-11-05T12:03:35.536Z,90.50
2022-11-05T12:06:40.268Z,90.28
2022-11-05T12:09:54.351Z,90.13
2022-11-05T12:13:04.593Z,89.70
2022-11-05T12:16:12.322Z,88.44
2022-11-05T12:19:21.970Z,89.05
2022-11-05T12:22:29.505Z,87.51
2022-11-05T12:25:36.888Z,87.15
2022-11-05T12:29:12.319Z,84.54
2022-11-05T12:32:22.724Z,83.65
2022-11-05T12:35:33.326Z,84.27
2022-11-05T12:38:47.680Z,83.43
2022-11-05T12:41:55.025Z,81.83
2022-11-05T12:45:01.903Z,80.82
2022-11-05T12:48:09.941Z,82.86
2022-11-05T12:51:20.002Z,80.89
2022-11-05T12:54:27.658Z,80.19
2022-11-05T12:57:30.916Z,79.33
2022-11-05T13:00:32.725Z,78.56
2022-11-05T13:03:40.729Z,79.01
2022-11-05T13:06:46.809Z,80.31
2022-11-05T13:09:52.384Z,80.84
2022-11-05T13:12:58.138Z,80.24
2022-11-05T13:16:03.463Z,79.05
2022-11-05T13:19:12.206Z,79.34
2022-11-05T13:22:20.903Z,79.21
2022-11-05T13:25:24.080Z,79.30
2022-11-05T13:28:31.996Z,78.06
2022-11-05T13:31:35.998Z,79.40
2022-11-05T13:34:37.935Z,79.76
2022-11-05T13:38:01.499Z,80.32
2022-11-05T13:41:12.308Z,80.52
2022-11-05T13:44:23.619Z,80.99
2022-11-05T13:47:34.364Z,79.32
2022-11-05T13:50:56.944Z,80.42
2022-11-05T13:54:23.176Z,80.39
2022-11-05T13:57:48.192Z,80.44
2022-11-05T14:01:01.389Z,81.14
2022-11-05T14:04:06.704Z,80.68
2022-11-05T14:07:10.216Z,80.65
2022-11-05T14:10:18.196Z,80.46
2022-11-05T14:13:25.344Z,81.02
2022-11-05T14:16:29.984Z,81.20
2022-11-05T14:19:35.929Z,81.02
2022-11-05T14:22:39.826Z,81.40
2022-11-05T14:25:59.830Z,81.13
2022-11-05T14:29:28.684Z,81.38
2022-11-05T14:32:44.306Z,81.84
2022-11-05T14:35:46.331Z,81.76
2022-11-05T14:38:49.862Z,81.49
2022-11-05T14:41:56.259Z,80.21
2022-11-05T14:45:03.249Z,81.42
2022-11-05T14:48:22.980Z,81.72
2022-11-05T14:51:30.255Z,81.98
2022-11-05T14:54:35.484Z,81.92
2022-11-05T14:57:55.984Z,82.04
2022-11-05T15:00:58.085Z,81.90
2022-11-05T15:04:02.782Z,81.84
2022-11-05T15:07:29.733Z,81.88
2022-11-05T15:10:32.219Z,81.73
2022-11-05T15:13:36.360Z,81.30
2022-11-05T15:16:42.332Z,81.43
2022-11-05T15:19:45.879Z,81.08
2022-11-05T15:22:49.959Z,81.55
2022-11-05T15:25:55.391Z,81.56
2022-11-05T15:28:57.450Z,80.91
2022-11-05T15:32:00.030Z,81.44
2022-11-05T15:35:03.046Z,81.18
2022-11-05T15:38:18.733Z,81.39
2022-11-05T15:41:21.585Z,80.75
2022-11-05T15:44:24.224Z,80.99
2022-11-05T15:47:26.581Z,80.69
2022-11-05T15:50:30.000Z,80.64
2022-11-05T15:53:56.091Z,80.32
2022-11-05T15:56:56.647Z,80.04
2022-11-05T15:59:58.225Z,80.18
2022-11-05T16:03:04.674Z,80.12
2022-11-05T16:06:09.507Z,79.70
2022-11-05T16:09:20.666Z,79.68
2022-11-05T16:12:28.078Z,80.00
2022-11-05T16:15:32.304Z,79.90
2022-11-05T16:18:35.543Z,80.06
2022-11-05T16:21:52.609Z,80.30
2022-11-05T16:24:54.330Z,80.40
2022-11-05T16:27:56.206Z,80.42
2022-11-05T16:30:59.322Z,80.39
2022-11-05T16:34:00.959Z,80.34
2022-11-05T16:37:05.375Z,80.66
2022-11-05T16:40:13.834Z,80.79
2022-11-05T16:43:18.310Z,80.70
2022-11-05T16:46:19.994Z,80.62
2022-11-05T16:49:21.672Z,80.64
2022-11-05T16:52:24.729Z,80.85
2022-11-05T16:55:26.651Z,80.84
2022-11-05T16:58:28.457Z,80.77
2022-11-05T17:01:30.245Z,81.20
2022-11-05T17:04:31.949Z,81.04
2022-11-05T17:07:40.192Z,80.51
2022-11-05T17:10:43.118Z,80.41
2022-11-05T17:13:45.260Z,80.21
2022-11-05T17:16:46.994Z,79.88
2022-11-05T17:19:48.819Z,79.66
2022-11-05T17:22:51.866Z,79.97
2022-11-05T17:25:54.705Z,79.47
2022-11-05T17:28:56.956Z,79.80
2022-11-05T17:31:58.491Z,79.78
2022-11-05T17:35:00.010Z,79.75
2022-11-05T17:38:03.181Z,79.80
2022-11-05T17:41:09.985Z,79.80
2022-11-05T17:44:12.175Z,79.48
2022-11-05T17:47:13.825Z,79.38
2022-11-05T17:50:16.079Z,79.64
2022-11-05T17:53:19.071Z,79.29
2022-11-05T17:56:30.520Z,79.47
2022-11-05T17:59:35.538Z,79.22
2022-11-05T18:02:40.135Z,79.31
2022-11-05T18:05:42.123Z,79.37
2022-11-05T18:08:45.198Z,79.49
2022-11-05T18:11:46.814Z,79.62
2022-11-05T18:14:48.473Z,79.60
2022-11-05T18:17:50.057Z,79.62
2022-11-05T18:20:51.830Z,79.57
2022-11-05T18:23:54.752Z,79.68
2022-11-05T18:26:56.412Z,79.91
2022-11-05T18:29:58.092Z,79.64
2022-11-05T18:32:59.799Z,79.56
2022-11-05T18:36:01.647Z,79.88
2022-11-05T18:39:05.104Z,79.89
2022-11-05T18:42:06.701Z,80.08
2022-11-05T18:45:09.075Z,80.21
2022-11-05T18:48:11.341Z,80.09
2022-11-05T18:51:13.957Z,80.35
2022-11-05T18:54:17.092Z,80.06
2022-11-05T18:57:18.746Z,80.17
2022-11-05T19:00:20.989Z,80.22
2022-11-05T19:03:23.252Z,79.97
2022-11-05T19:06:27.923Z,79.86
2022-11-05T19:09:31.039Z,80.40
2022-11-05T19:12:32.994Z,80.33
2022-11-05T19:15:34.651Z,80.30
2022-11-05T19:18:36.530Z,80.09
2022-11-05T19:21:38.263Z,80.39
2022-11-05T19:24:41.335Z,80.21
2022-11-05T19:27:43.856Z,79.85
2022-11-05T19:30:45.722Z,80.43
2022-11-05T19:33:48.380Z,80.46
2022-11-05T19:36:50.018Z,79.85
2022-11-05T19:39:55.164Z,80.00
2022-11-05T19:42:56.844Z,80.55
2022-11-05T19:45:58.419Z,80.21
2022-11-05T19:49:00.183Z,80.03
2022-11-05T19:52:01.848Z,79.57
2022-11-05T19:55:10.957Z,80.09
2022-11-05T19:58:14.133Z,79.63
2022-11-05T20:01:16.454Z,79.54
2022-11-05T20:04:18.585Z,79.97
2022-11-05T20:07:20.473Z,79.82
2022-11-05T20:10:23.511Z,79.92
2022-11-05T20:13:25.324Z,80.63
2022-11-05T20:16:29.984Z,80.47
2022-11-05T20:19:31.551Z,80.49
2022-11-05T20:22:33.325Z,80.19
2022-11-05T20:25:36.560Z,80.41
2022-11-05T20:28:38.334Z,80.38
2022-11-05T20:31:40.023Z,80.59
2022-11-05T20:34:41.537Z,80.56
2022-11-05T20:37:43.114Z,80.34
2022-11-05T20:40:46.125Z,80.48
2022-11-05T20:43:48.189Z,80.52
2022-11-05T20:46:49.751Z,80.89
2022-11-05T20:49:51.880Z,80.84
2022-11-05T20:52:56.329Z,81.17
2022-11-05T20:56:03.681Z,80.97
2022-11-05T20:59:08.517Z,80.92
2022-11-05T21:02:10.368Z,80.90
2022-11-05T21:05:12.144Z,80.90
2022-11-05T21:08:14.637Z,80.99
2022-11-05T21:11:18.626Z,81.14
2022-11-05T21:14:20.147Z,81.09
2022-11-05T21:17:21.846Z,80.85
2022-11-05T21:20:23.480Z,81.18
2022-11-05T21:23:25.179Z,81.02
2022-11-05T21:26:30.954Z,81.16
2022-11-05T21:29:32.531Z,81.29
2022-11-05T21:32:34.369Z,81.64
2022-11-05T21:35:39.189Z,81.92
2022-11-05T21:38:41.283Z,81.96
2022-11-05T21:41:44.328Z,81.85
2022-11-05T21:44:48.196Z,82.35
2022-11-05T21:47:49.869Z,82.77
2022-11-05T21:51:12.141Z,82.68
2022-11-05T21:54:32.458Z,82.72
2022-11-05T21:57:54.087Z,83.15
2022-11-05T22:00:55.730Z,83.06
2022-11-05T22:04:02.666Z,83.01
2022-11-05T22:07:05.092Z,83.37
2022-11-05T22:10:10.733Z,83.53
2022-11-05T22:13:20.435Z,84.16
2022-11-05T22:16:24.366Z,84.35
2022-11-05T22:19:26.222Z,84.32
2022-11-05T22:22:27.946Z,84.35
2022-11-05T22:25:29.725Z,84.43
2022-11-05T22:28:32.897Z,84.52
2022-11-05T22:31:36.911Z,84.94
2022-11-05T22:34:38.948Z,85.39
2022-11-05T22:37:42.285Z,85.33
2022-11-05T22:40:43.941Z,85.16
2022-11-05T22:43:47.056Z,85.10
2022-11-05T22:46:48.793Z,85.40
2022-11-05T22:49:50.756Z,85.58
2022-11-05T22:52:52.302Z,85.66
2022-11-05T22:55:53.905Z,85.94
2022-11-05T22:58:57.626Z,85.97
2022-11-05T23:01:59.848Z,86.40
2022-11-05T23:05:04.076Z,86.14
2022-11-05T23:08:24.686Z,86.54
2022-11-05T23:11:38.860Z,86.54
2022-11-05T23:14:41.890Z,86.61
2022-11-05T23:18:02.022Z,86.67
2022-11-05T23:21:23.335Z,86.81
2022-11-05T23:24:24.848Z,86.69
2022-11-05T23:27:28.624Z,86.75
2022-11-05T23:30:31.939Z,86.80
2022-11-05T23:33:34.679Z,87.35
2022-11-05T23:36:55.004Z,87.48
2022-11-05T23:39:56.572Z,87.10
2022-11-05T23:43:16.687Z,87.21
2022-11-05T23:46:38.120Z,87.56
2022-11-05T23:49:39.811Z,87.79
2022-11-05T23:52:41.419Z,87.50
2022-11-05T23:55:43.573Z,87.82
2022-11-05T23:58:45.356Z,87.87
